sensor_id;sensor_type;location;lat;lon;timestamp;P1;P2;P0
75385;PMS5003;64239;55.012;73.474;2023-08-06T00:00:23;11.50;10.25;6.25
75385;PMS5003;64239;55.012;73.474;2023-08-06T00:02:49;16.00;13.75;8.00
75385;PMS5003;64239;55.012;73.474;2023-08-06T00:05:15;13.00;11.00;6.75
75385;PMS5003;64239;55.012;73.474;2023-08-06T00:07:47;15.00;12.00;7.00
75385;PMS5003;64239;55.012;73.474;2023-08-06T00:10:13;13.75;12.00;7.75
75385;PMS5003;64239;55.012;73.474;2023-08-06T00:12:39;14.00;12.00;6.75
75385;PMS5003;64239;55.012;73.474;2023-08-06T00:15:05;15.00;13.00;8.00
75385;PMS5003;64239;55.012;73.474;2023-08-06T00:17:31;17.00;14.00;8.00
75385;PMS5003;64239;55.012;73.474;2023-08-06T00:19:57;13.75;11.50;6.75
75385;PMS5003;64239;55.012;73.474;2023-08-06T00:22:23;13.25;12.00;8.00
75385;PMS5003;64239;55.012;73.474;2023-08-06T00:24:49;12.75;10.75;6.75
75385;PMS5003;64239;55.012;73.474;2023-08-06T00:27:15;13.75;12.00;7.00
75385;PMS5003;64239;55.012;73.474;2023-08-06T00:29:41;16.50;12.75;8.25
75385;PMS5003;64239;55.012;73.474;2023-08-06T00:32:07;16.50;14.50;8.50
75385;PMS5003;64239;55.012;73.474;2023-08-06T00:34:33;15.50;13.00;7.75
75385;PMS5003;64239;55.012;73.474;2023-08-06T00:36:59;22.50;19.00;10.50
75385;PMS5003;64239;55.012;73.474;2023-08-06T00:39:25;36.75;29.25;16.00
75385;PMS5003;64239;55.012;73.474;2023-08-06T00:41:50;51.75;39.50;22.00
75385;PMS5003;64239;55.012;73.474;2023-08-06T00:44:16;58.00;43.50;24.25
75385;PMS5003;64239;55.012;73.474;2023-08-06T00:46:43;58.50;44.00;25.75
75385;PMS5003;64239;55.012;73.474;2023-08-06T00:49:09;57.25;43.00;24.75
75385;PMS5003;64239;55.012;73.474;2023-08-06T00:51:35;54.00;41.25;23.00
75385;PMS5003;64239;55.012;73.474;2023-08-06T00:54:01;52.00;39.50;23.75
75385;PMS5003;64239;55.012;73.474;2023-08-06T00:56:27;44.00;34.00;19.75
75385;PMS5003;64239;55.012;73.474;2023-08-06T00:58:54;39.00;32.00;18.50
75385;PMS5003;64239;55.012;73.474;2023-08-06T01:01:20;37.00;29.00;17.00
75385;PMS5003;64239;55.012;73.474;2023-08-06T01:03:46;35.00;27.75;16.25
75385;PMS5003;64239;55.012;73.474;2023-08-06T01:06:12;33.75;27.50;16.00
75385;PMS5003;64239;55.012;73.474;2023-08-06T01:13:45;27.00;22.50;12.00
75385;PMS5003;64239;55.012;73.474;2023-08-06T01:16:16;23.75;19.75;10.75
75385;PMS5003;64239;55.012;73.474;2023-08-06T01:18:43;22.25;19.00;10.75
75385;PMS5003;64239;55.012;73.474;2023-08-06T01:21:15;23.25;20.00;11.00
75385;PMS5003;64239;55.012;73.474;2023-08-06T01:23:41;22.75;19.50;12.00
75385;PMS5003;64239;55.012;73.474;2023-08-06T01:26:24;22.00;18.75;11.00
75385;PMS5003;64239;55.012;73.474;2023-08-06T01:31:19;21.00;18.00;10.00
75385;PMS5003;64239;55.012;73.474;2023-08-06T01:33:47;16.50;14.00;9.00
75385;PMS5003;64239;55.012;73.474;2023-08-06T01:36:15;15.50;13.75;8.75
75385;PMS5003;64239;55.012;73.474;2023-08-06T01:38:42;15.00;13.00;8.00
75385;PMS5003;64239;55.012;73.474;2023-08-06T01:41:08;16.00;14.00;9.00
75385;PMS5003;64239;55.012;73.474;2023-08-06T01:43:34;13.00;12.00;8.00
75385;PMS5003;64239;55.012;73.474;2023-08-06T01:46:00;12.50;11.50;7.00
75385;PMS5003;64239;55.012;73.474;2023-08-06T01:48:26;17.00;13.00;8.00
75385;PMS5003;64239;55.012;73.474;2023-08-06T01:50:52;13.00;12.00;7.00
75385;PMS5003;64239;55.012;73.474;2023-08-06T01:53:18;13.25;12.25;7.00
75385;PMS5003;64239;55.012;73.474;2023-08-06T01:55:48;14.00;12.75;7.00
75385;PMS5003;64239;55.012;73.474;2023-08-06T01:58:14;13.50;11.50;7.00
75385;PMS5003;64239;55.012;73.474;2023-08-06T02:00:40;12.50;12.00;7.50
75385;PMS5003;64239;55.012;73.474;2023-08-06T02:03:06;13.75;12.25;7.50
75385;PMS5003;64239;55.012;73.474;2023-08-06T02:05:32;15.25;13.75;8.25
75385;PMS5003;64239;55.012;73.474;2023-08-06T02:07:58;13.50;11.75;7.25
75385;PMS5003;64239;55.012;73.474;2023-08-06T02:10:24;16.00;14.00;9.00
75385;PMS5003;64239;55.012;73.474;2023-08-06T02:12:50;12.75;12.00;8.00
75385;PMS5003;64239;55.012;73.474;2023-08-06T02:15:16;14.00;12.00;8.00
75385;PMS5003;64239;55.012;73.474;2023-08-06T02:17:42;15.00;13.25;8.00
75385;PMS5003;64239;55.012;73.474;2023-08-06T02:20:08;14.00;13.00;8.00
75385;PMS5003;64239;55.012;73.474;2023-08-06T02:22:34;14.50;13.00;8.00
75385;PMS5003;64239;55.012;73.474;2023-08-06T02:25:00;16.00;14.00;8.75
75385;PMS5003;64239;55.012;73.474;2023-08-06T02:27:26;13.50;12.50;7.50
75385;PMS5003;64239;55.012;73.474;2023-08-06T02:29:52;15.75;14.75;10.00
75385;PMS5003;64239;55.012;73.474;2023-08-06T02:32:18;15.75;13.75;9.25
75385;PMS5003;64239;55.012;73.474;2023-08-06T02:34:44;13.00;12.00;7.75
75385;PMS5003;64239;55.012;73.474;2023-08-06T02:37:11;14.75;12.00;8.00
75385;PMS5003;64239;55.012;73.474;2023-08-06T02:39:37;16.75;14.50;9.00
75385;PMS5003;64239;55.012;73.474;2023-08-06T02:42:08;14.25;14.00;9.00
75385;PMS5003;64239;55.012;73.474;2023-08-06T02:44:34;16.75;15.00;10.00
75385;PMS5003;64239;55.012;73.474;2023-08-06T02:47:00;20.00;17.25;11.75
75385;PMS5003;64239;55.012;73.474;2023-08-06T02:49:27;16.00;14.75;9.25
75385;PMS5003;64239;55.012;73.474;2023-08-06T02:51:52;17.00;16.00;11.00
75385;PMS5003;64239;55.012;73.474;2023-08-06T02:54:19;19.00;16.00;10.00
75385;PMS5003;64239;55.012;73.474;2023-08-06T02:56:45;20.00;18.00;11.25
75385;PMS5003;64239;55.012;73.474;2023-08-06T02:59:12;21.00;18.00;12.00
75385;PMS5003;64239;55.012;73.474;2023-08-06T03:01:38;19.00;17.00;11.00
75385;PMS5003;64239;55.012;73.474;2023-08-06T03:04:05;18.75;17.00;10.50
75385;PMS5003;64239;55.012;73.474;2023-08-06T03:06:31;18.50;16.25;10.00
75385;PMS5003;64239;55.012;73.474;2023-08-06T05:21:24;26.00;24.00;16.00
75385;PMS5003;64239;55.012;73.474;2023-08-06T05:23:50;26.50;23.50;15.75
75385;PMS5003;64239;55.012;73.474;2023-08-06T05:26:16;27.00;24.00;17.00
75385;PMS5003;64239;55.012;73.474;2023-08-06T05:28:44;27.00;24.00;17.00
75385;PMS5003;64239;55.012;73.474;2023-08-06T05:31:11;30.50;26.75;18.00
75385;PMS5003;64239;55.012;73.474;2023-08-06T05:33:37;24.00;21.00;15.00
75385;PMS5003;64239;55.012;73.474;2023-08-06T05:36:03;26.50;23.50;16.25
75385;PMS5003;64239;55.012;73.474;2023-08-06T05:38:29;28.75;26.00;17.00
75385;PMS5003;64239;55.012;73.474;2023-08-06T05:40:55;27.00;25.00;17.00
75385;PMS5003;64239;55.012;73.474;2023-08-06T05:43:22;26.00;23.25;16.00
75385;PMS5003;64239;55.012;73.474;2023-08-06T05:45:50;27.00;24.00;16.00
75385;PMS5003;64239;55.012;73.474;2023-08-06T05:48:16;26.00;24.00;17.00
75385;PMS5003;64239;55.012;73.474;2023-08-06T05:50:43;30.00;26.00;17.00
75385;PMS5003;64239;55.012;73.474;2023-08-06T05:53:09;30.00;27.00;18.00
75385;PMS5003;64239;55.012;73.474;2023-08-06T05:55:35;29.00;26.00;18.00
75385;PMS5003;64239;55.012;73.474;2023-08-06T05:58:01;26.00;23.00;15.75
75385;PMS5003;64239;55.012;73.474;2023-08-06T06:00:27;28.00;25.00;17.00
75385;PMS5003;64239;55.012;73.474;2023-08-06T06:02:53;26.25;24.00;17.00
75385;PMS5003;64239;55.012;73.474;2023-08-06T06:05:18;25.00;23.00;15.75
75385;PMS5003;64239;55.012;73.474;2023-08-06T06:07:44;27.50;24.75;17.00
75385;PMS5003;64239;55.012;73.474;2023-08-06T06:10:10;29.00;26.00;18.00
75385;PMS5003;64239;55.012;73.474;2023-08-06T06:12:38;27.75;24.00;17.00
75385;PMS5003;64239;55.012;73.474;2023-08-06T06:15:04;28.25;25.00;17.00
75385;PMS5003;64239;55.012;73.474;2023-08-06T06:17:30;28.75;25.00;17.00
75385;PMS5003;64239;55.012;73.474;2023-08-06T06:19:56;25.75;24.50;17.00
75385;PMS5003;64239;55.012;73.474;2023-08-06T06:22:22;29.00;26.00;18.00
75385;PMS5003;64239;55.012;73.474;2023-08-06T06:24:47;34.00;28.75;20.00
75385;PMS5003;64239;55.012;73.474;2023-08-06T06:27:13;35.00;30.00;20.00
75385;PMS5003;64239;55.012;73.474;2023-08-06T06:29:39;34.25;29.75;20.00
75385;PMS5003;64239;55.012;73.474;2023-08-06T06:32:05;33.00;29.00;20.00
75385;PMS5003;64239;55.012;73.474;2023-08-06T06:34:31;25.75;23.50;16.00
75385;PMS5003;64239;55.012;73.474;2023-08-06T06:36:57;25.00;23.00;17.00
75385;PMS5003;64239;55.012;73.474;2023-08-06T06:39:23;25.00;23.00;16.00
75385;PMS5003;64239;55.012;73.474;2023-08-06T06:41:49;31.25;27.50;17.50
75385;PMS5003;64239;55.012;73.474;2023-08-06T06:44:15;29.50;26.00;18.00
75385;PMS5003;64239;55.012;73.474;2023-08-06T06:46:41;28.00;25.00;17.00
75385;PMS5003;64239;55.012;73.474;2023-08-06T06:49:09;26.00;24.00;17.00
75385;PMS5003;64239;55.012;73.474;2023-08-06T06:51:38;27.00;24.00;16.25
75385;PMS5003;64239;55.012;73.474;2023-08-06T06:54:05;37.25;32.00;21.00
75385;PMS5003;64239;55.012;73.474;2023-08-06T06:56:30;28.00;25.00;18.00
75385;PMS5003;64239;55.012;73.474;2023-08-06T06:58:56;29.25;26.00;17.00
75385;PMS5003;64239;55.012;73.474;2023-08-06T07:01:22;26.50;24.75;17.00
75385;PMS5003;64239;55.012;73.474;2023-08-06T07:03:48;28.00;25.00;16.75
75385;PMS5003;64239;55.012;73.474;2023-08-06T07:06:24;24.00;22.00;15.75
75385;PMS5003;64239;55.012;73.474;2023-08-06T07:08:50;26.00;24.00;16.25
75385;PMS5003;64239;55.012;73.474;2023-08-06T07:11:16;27.00;24.50;16.75
75385;PMS5003;64239;55.012;73.474;2023-08-06T07:13:42;26.00;23.75;16.00
75385;PMS5003;64239;55.012;73.474;2023-08-06T07:16:08;26.75;24.00;16.75
75385;PMS5003;64239;55.012;73.474;2023-08-06T07:18:34;27.00;24.00;16.00
75385;PMS5003;64239;55.012;73.474;2023-08-06T07:21:00;26.25;24.25;17.00
75385;PMS5003;64239;55.012;73.474;2023-08-06T07:23:26;25.25;23.00;16.00
75385;PMS5003;64239;55.012;73.474;2023-08-06T07:25:52;25.00;23.25;16.75
75385;PMS5003;64239;55.012;73.474;2023-08-06T07:28:18;30.00;27.00;18.00
75385;PMS5003;64239;55.012;73.474;2023-08-06T07:30:44;29.00;25.50;18.00
75385;PMS5003;64239;55.012;73.474;2023-08-06T07:33:11;35.00;30.00;20.00
75385;PMS5003;64239;55.012;73.474;2023-08-06T07:35:37;29.00;26.00;18.00
75385;PMS5003;64239;55.012;73.474;2023-08-06T07:38:03;26.00;23.50;17.00
75385;PMS5003;64239;55.012;73.474;2023-08-06T07:40:29;26.25;24.25;17.00
75385;PMS5003;64239;55.012;73.474;2023-08-06T07:42:55;28.75;25.50;18.00
75385;PMS5003;64239;55.012;73.474;2023-08-06T07:45:22;29.00;26.00;17.00
75385;PMS5003;64239;55.012;73.474;2023-08-06T07:47:50;26.25;25.00;18.00
75385;PMS5003;64239;55.012;73.474;2023-08-06T07:50:16;28.00;25.00;17.50
75385;PMS5003;64239;55.012;73.474;2023-08-06T07:52:42;30.00;27.00;19.00
75385;PMS5003;64239;55.012;73.474;2023-08-06T07:55:14;28.50;26.00;19.00
75385;PMS5003;64239;55.012;73.474;2023-08-06T07:57:41;33.25;29.75;21.00
75385;PMS5003;64239;55.012;73.474;2023-08-06T08:00:07;30.75;27.00;19.75
75385;PMS5003;64239;55.012;73.474;2023-08-06T08:02:33;33.00;29.00;21.00
75385;PMS5003;64239;55.012;73.474;2023-08-06T08:04:59;31.00;27.00;18.00
75385;PMS5003;64239;55.012;73.474;2023-08-06T08:07:24;28.00;26.00;18.00
75385;PMS5003;64239;55.012;73.474;2023-08-06T08:09:53;25.00;23.00;16.00
75385;PMS5003;64239;55.012;73.474;2023-08-06T08:12:19;28.00;25.50;17.00
75385;PMS5003;64239;55.012;73.474;2023-08-06T08:14:45;26.50;24.50;18.00
75385;PMS5003;64239;55.012;73.474;2023-08-06T08:17:11;29.00;26.00;19.00
75385;PMS5003;64239;55.012;73.474;2023-08-06T08:19:37;29.75;26.00;17.00
75385;PMS5003;64239;55.012;73.474;2023-08-06T08:22:03;29.00;25.00;18.00
75385;PMS5003;64239;55.012;73.474;2023-08-06T08:24:29;28.00;25.00;17.00
75385;PMS5003;64239;55.012;73.474;2023-08-06T08:26:56;26.00;24.25;17.00
75385;PMS5003;64239;55.012;73.474;2023-08-06T08:29:22;26.00;24.00;17.00
75385;PMS5003;64239;55.012;73.474;2023-08-06T08:31:49;25.00;23.00;17.00
75385;PMS5003;64239;55.012;73.474;2023-08-06T08:34:16;26.00;22.50;16.00
75385;PMS5003;64239;55.012;73.474;2023-08-06T08:36:42;27.00;24.00;18.00
75385;PMS5003;64239;55.012;73.474;2023-08-06T08:39:09;27.00;25.00;18.00
75385;PMS5003;64239;55.012;73.474;2023-08-06T08:41:38;28.00;25.00;17.00
75385;PMS5003;64239;55.012;73.474;2023-08-06T08:44:05;28.75;25.00;17.00
75385;PMS5003;64239;55.012;73.474;2023-08-06T08:46:33;26.25;24.00;16.00
75385;PMS5003;64239;55.012;73.474;2023-08-06T08:49:01;26.75;24.50;18.00
75385;PMS5003;64239;55.012;73.474;2023-08-06T08:51:27;26.00;23.00;17.00
75385;PMS5003;64239;55.012;73.474;2023-08-06T08:53:54;29.00;25.00;17.00
75385;PMS5003;64239;55.012;73.474;2023-08-06T08:56:24;22.50;21.50;16.00
75385;PMS5003;64239;55.012;73.474;2023-08-06T08:58:50;26.00;23.50;16.50
75385;PMS5003;64239;55.012;73.474;2023-08-06T09:01:18;22.00;19.75;14.25
75385;PMS5003;64239;55.012;73.474;2023-08-06T09:03:53;29.25;25.00;18.00
75385;PMS5003;64239;55.012;73.474;2023-08-06T09:06:19;26.00;24.00;17.00
75385;PMS5003;64239;55.012;73.474;2023-08-06T09:08:47;22.50;21.00;16.00
75385;PMS5003;64239;55.012;73.474;2023-08-06T09:11:16;28.00;24.00;16.50
75385;PMS5003;64239;55.012;73.474;2023-08-06T09:13:42;25.00;23.00;16.00
75385;PMS5003;64239;55.012;73.474;2023-08-06T09:16:09;22.25;20.75;15.00
75385;PMS5003;64239;55.012;73.474;2023-08-06T09:18:38;24.00;21.25;15.00
75385;PMS5003;64239;55.012;73.474;2023-08-06T09:21:04;23.00;21.00;14.75
75385;PMS5003;64239;55.012;73.474;2023-08-06T09:23:30;23.75;21.75;16.00
75385;PMS5003;64239;55.012;73.474;2023-08-06T09:25:57;25.00;23.75;17.00
75385;PMS5003;64239;55.012;73.474;2023-08-06T09:28:23;24.25;22.75;16.25
75385;PMS5003;64239;55.012;73.474;2023-08-06T09:30:50;25.50;23.50;16.75
75385;PMS5003;64239;55.012;73.474;2023-08-06T09:33:19;30.00;26.25;18.00
75385;PMS5003;64239;55.012;73.474;2023-08-06T09:35:46;28.00;25.50;18.00
75385;PMS5003;64239;55.012;73.474;2023-08-06T09:38:12;25.00;23.00;15.75
75385;PMS5003;64239;55.012;73.474;2023-08-06T09:40:38;21.50;20.00;14.50
75385;PMS5003;64239;55.012;73.474;2023-08-06T09:43:04;25.00;24.00;18.00
75385;PMS5003;64239;55.012;73.474;2023-08-06T09:45:39;25.00;23.00;16.00
75385;PMS5003;64239;55.012;73.474;2023-08-06T09:48:07;23.50;21.75;15.50
75385;PMS5003;64239;55.012;73.474;2023-08-06T09:50:34;20.75;19.75;15.00
75385;PMS5003;64239;55.012;73.474;2023-08-06T09:53:04;22.00;20.00;15.00
75385;PMS5003;64239;55.012;73.474;2023-08-06T09:55:33;24.00;22.00;14.00
75385;PMS5003;64239;55.012;73.474;2023-08-06T09:58:11;21.00;19.00;13.50
75385;PMS5003;64239;55.012;73.474;2023-08-06T10:00:37;19.00;17.00;13.00
75385;PMS5003;64239;55.012;73.474;2023-08-06T10:03:03;21.00;19.00;14.00
75385;PMS5003;64239;55.012;73.474;2023-08-06T10:05:30;20.00;18.50;12.25
75385;PMS5003;64239;55.012;73.474;2023-08-06T10:07:57;18.00;16.00;12.50
75385;PMS5003;64239;55.012;73.474;2023-08-06T10:10:23;19.00;18.00;13.00
75385;PMS5003;64239;55.012;73.474;2023-08-06T10:12:51;20.75;19.00;13.00
75385;PMS5003;64239;55.012;73.474;2023-08-06T10:15:23;20.00;19.00;14.00
75385;PMS5003;64239;55.012;73.474;2023-08-06T10:17:51;19.00;18.00;13.00
75385;PMS5003;64239;55.012;73.474;2023-08-06T15:16:47;37.00;30.00;18.00
75385;PMS5003;64239;55.012;73.474;2023-08-06T15:19:13;24.50;22.00;14.00
75385;PMS5003;64239;55.012;73.474;2023-08-06T15:21:39;26.00;22.00;14.00
75385;PMS5003;64239;55.012;73.474;2023-08-06T15:24:05;23.75;20.00;12.00
75385;PMS5003;64239;55.012;73.474;2023-08-06T15:26:32;27.75;22.75;13.75
75385;PMS5003;64239;55.012;73.474;2023-08-06T15:28:59;29.25;23.75;14.00
75385;PMS5003;64239;55.012;73.474;2023-08-06T15:31:25;28.75;24.00;14.00
75385;PMS5003;64239;55.012;73.474;2023-08-06T15:34:00;26.75;22.75;14.00
75385;PMS5003;64239;55.012;73.474;2023-08-06T15:36:27;25.25;22.00;14.00
75385;PMS5003;64239;55.012;73.474;2023-08-06T15:38:53;25.00;20.50;11.50
75385;PMS5003;64239;55.012;73.474;2023-08-06T15:41:19;22.00;19.00;11.00
75385;PMS5003;64239;55.012;73.474;2023-08-06T15:43:45;20.00;18.00;11.00
75385;PMS5003;64239;55.012;73.474;2023-08-06T15:46:11;22.00;19.00;12.00
75385;PMS5003;64239;55.012;73.474;2023-08-06T15:48:36;18.00;15.00;9.25
75385;PMS5003;64239;55.012;73.474;2023-08-06T15:51:02;19.00;16.00;10.50
75385;PMS5003;64239;55.012;73.474;2023-08-06T15:53:28;16.00;14.00;9.00
75385;PMS5003;64239;55.012;73.474;2023-08-06T15:55:54;21.00;17.00;11.00
75385;PMS5003;64239;55.012;73.474;2023-08-06T15:58:20;18.00;15.00;10.00
75385;PMS5003;64239;55.012;73.474;2023-08-06T16:00:46;19.25;15.75;10.00
75385;PMS5003;64239;55.012;73.474;2023-08-06T16:03:12;15.25;13.75;9.00
75385;PMS5003;64239;55.012;73.474;2023-08-06T16:05:38;18.00;15.25;10.00
75385;PMS5003;64239;55.012;73.474;2023-08-06T16:08:04;16.50;14.50;9.00
75385;PMS5003;64239;55.012;73.474;2023-08-06T16:10:30;19.00;16.00;11.00
75385;PMS5003;64239;55.012;73.474;2023-08-06T16:12:56;21.00;17.00;11.00
75385;PMS5003;64239;55.012;73.474;2023-08-06T16:15:22;18.75;17.00;11.00
75385;PMS5003;64239;55.012;73.474;2023-08-06T16:17:47;16.25;15.00;10.00
75385;PMS5003;64239;55.012;73.474;2023-08-06T16:20:13;19.50;16.00;11.00
75385;PMS5003;64239;55.012;73.474;2023-08-06T16:22:40;21.00;17.00;11.00
75385;PMS5003;64239;55.012;73.474;2023-08-06T16:25:06;23.00;18.50;12.00
75385;PMS5003;64239;55.012;73.474;2023-08-06T16:27:38;19.00;17.00;11.00
75385;PMS5003;64239;55.012;73.474;2023-08-06T16:30:04;21.50;17.75;12.00
75385;PMS5003;64239;55.012;73.474;2023-08-06T16:32:30;22.75;19.00;13.25
75385;PMS5003;64239;55.012;73.474;2023-08-06T16:34:56;20.00;17.75;11.00
75385;PMS5003;64239;55.012;73.474;2023-08-06T16:37:22;19.25;16.25;11.00
75385;PMS5003;64239;55.012;73.474;2023-08-06T16:39:48;21.00;18.00;11.00
75385;PMS5003;64239;55.012;73.474;2023-08-06T16:42:14;21.00;17.00;11.00
75385;PMS5003;64239;55.012;73.474;2023-08-06T16:44:40;19.00;16.50;11.00
75385;PMS5003;64239;55.012;73.474;2023-08-06T16:47:06;17.75;15.00;9.00
75385;PMS5003;64239;55.012;73.474;2023-08-06T16:49:32;15.75;13.00;8.50
75385;PMS5003;64239;55.012;73.474;2023-08-06T16:51:58;15.75;13.00;9.00
75385;PMS5003;64239;55.012;73.474;2023-08-06T16:54:24;17.00;15.00;9.00
75385;PMS5003;64239;55.012;73.474;2023-08-06T16:56:50;13.75;12.50;8.00
75385;PMS5003;64239;55.012;73.474;2023-08-06T16:59:16;15.50;13.00;8.00
75385;PMS5003;64239;55.012;73.474;2023-08-06T17:01:42;16.00;13.00;9.00
75385;PMS5003;64239;55.012;73.474;2023-08-06T17:04:08;15.25;13.00;9.00
75385;PMS5003;64239;55.012;73.474;2023-08-06T17:06:34;15.50;13.50;8.25
75385;PMS5003;64239;55.012;73.474;2023-08-06T17:09:00;17.50;15.50;10.00
75385;PMS5003;64239;55.012;73.474;2023-08-06T17:11:29;16.50;14.00;9.00
75385;PMS5003;64239;55.012;73.474;2023-08-06T17:13:55;16.00;13.25;9.00
75385;PMS5003;64239;55.012;73.474;2023-08-06T17:16:22;15.00;13.75;8.75
75385;PMS5003;64239;55.012;73.474;2023-08-06T17:18:47;15.00;13.00;8.00
75385;PMS5003;64239;55.012;73.474;2023-08-06T17:21:13;15.00;13.00;8.00
75385;PMS5003;64239;55.012;73.474;2023-08-06T17:23:39;11.00;10.00;7.00
75385;PMS5003;64239;55.012;73.474;2023-08-06T17:26:05;14.75;13.00;8.00
75385;PMS5003;64239;55.012;73.474;2023-08-06T17:28:31;13.00;11.00;7.00
75385;PMS5003;64239;55.012;73.474;2023-08-06T17:30:58;15.00;13.00;8.00
75385;PMS5003;64239;55.012;73.474;2023-08-06T17:33:24;11.00;10.00;7.00
75385;PMS5003;64239;55.012;73.474;2023-08-06T17:35:50;10.00;8.00;5.00
75385;PMS5003;64239;55.012;73.474;2023-08-06T17:38:16;8.50;7.00;4.75
75385;PMS5003;64239;55.012;73.474;2023-08-06T17:40:42;9.00;8.00;5.00
75385;PMS5003;64239;55.012;73.474;2023-08-06T17:43:08;7.00;6.25;5.00
75385;PMS5003;64239;55.012;73.474;2023-08-06T17:45:34;7.00;6.00;5.00
75385;PMS5003;64239;55.012;73.474;2023-08-06T17:48:01;8.00;7.75;5.00
75385;PMS5003;64239;55.012;73.474;2023-08-06T17:50:27;8.00;7.00;5.00
75385;PMS5003;64239;55.012;73.474;2023-08-06T17:52:53;7.00;7.00;5.00
75385;PMS5003;64239;55.012;73.474;2023-08-06T17:55:19;7.00;6.50;5.00
75385;PMS5003;64239;55.012;73.474;2023-08-06T17:57:45;6.00;5.00;4.00
75385;PMS5003;64239;55.012;73.474;2023-08-06T18:00:11;8.00;7.00;5.00
75385;PMS5003;64239;55.012;73.474;2023-08-06T18:02:37;7.00;6.00;5.00
75385;PMS5003;64239;55.012;73.474;2023-08-06T18:05:03;9.00;8.00;6.00
75385;PMS5003;64239;55.012;73.474;2023-08-06T18:07:29;9.75;8.25;5.00
75385;PMS5003;64239;55.012;73.474;2023-08-06T18:09:55;8.00;7.50;5.00
75385;PMS5003;64239;55.012;73.474;2023-08-06T18:12:21;8.00;7.00;5.00
75385;PMS5003;64239;55.012;73.474;2023-08-06T18:14:48;8.50;8.00;6.00
75385;PMS5003;64239;55.012;73.474;2023-08-06T18:17:14;6.75;6.00;4.00
75385;PMS5003;64239;55.012;73.474;2023-08-06T18:19:40;6.00;5.00;4.00
75385;PMS5003;64239;55.012;73.474;2023-08-06T18:22:05;10.00;9.00;7.00
75385;PMS5003;64239;55.012;73.474;2023-08-06T18:24:32;11.00;10.00;6.00
75385;PMS5003;64239;55.012;73.474;2023-08-06T18:26:58;8.00;8.00;6.00
75385;PMS5003;64239;55.012;73.474;2023-08-06T18:29:23;9.00;8.00;6.00
75385;PMS5003;64239;55.012;73.474;2023-08-06T18:31:49;9.00;7.00;4.75
75385;PMS5003;64239;55.012;73.474;2023-08-06T18:34:15;8.00;8.00;5.25
75385;PMS5003;64239;55.012;73.474;2023-08-06T18:36:41;8.25;7.00;5.00
75385;PMS5003;64239;55.012;73.474;2023-08-06T18:39:07;9.00;8.00;5.00
75385;PMS5003;64239;55.012;73.474;2023-08-06T18:41:33;7.00;6.50;4.50
75385;PMS5003;64239;55.012;73.474;2023-08-06T18:43:59;9.00;8.00;6.00
75385;PMS5003;64239;55.012;73.474;2023-08-06T18:46:25;7.00;6.25;4.25
75385;PMS5003;64239;55.012;73.474;2023-08-06T18:48:50;8.00;6.25;5.00
75385;PMS5003;64239;55.012;73.474;2023-08-06T18:51:18;7.25;6.00;4.00
75385;PMS5003;64239;55.012;73.474;2023-08-06T18:53:45;7.00;6.00;4.00
75385;PMS5003;64239;55.012;73.474;2023-08-06T18:56:11;7.00;6.00;5.00
75385;PMS5003;64239;55.012;73.474;2023-08-06T18:58:37;7.00;6.00;4.00
75385;PMS5003;64239;55.012;73.474;2023-08-06T19:01:03;7.00;6.00;4.50
75385;PMS5003;64239;55.012;73.474;2023-08-06T19:03:28;8.00;7.00;5.00
75385;PMS5003;64239;55.012;73.474;2023-08-06T19:05:57;9.00;7.00;5.00
75385;PMS5003;64239;55.012;73.474;2023-08-06T19:08:24;8.00;7.00;5.00
75385;PMS5003;64239;55.012;73.474;2023-08-06T19:10:50;9.00;8.75;6.00
75385;PMS5003;64239;55.012;73.474;2023-08-06T19:13:15;10.25;8.25;5.00
75385;PMS5003;64239;55.012;73.474;2023-08-06T19:15:44;9.00;8.00;5.00
75385;PMS5003;64239;55.012;73.474;2023-08-06T19:18:10;9.00;8.00;6.00
75385;PMS5003;64239;55.012;73.474;2023-08-06T19:20:40;12.00;10.00;7.00
75385;PMS5003;64239;55.012;73.474;2023-08-06T19:23:07;11.00;9.00;6.00
75385;PMS5003;64239;55.012;73.474;2023-08-06T19:25:42;9.00;8.00;5.00
75385;PMS5003;64239;55.012;73.474;2023-08-06T19:28:11;9.75;8.00;6.00
75385;PMS5003;64239;55.012;73.474;2023-08-06T19:30:37;10.00;9.00;6.00
75385;PMS5003;64239;55.012;73.474;2023-08-06T19:33:08;12.50;11.00;7.75
75385;PMS5003;64239;55.012;73.474;2023-08-06T19:35:36;10.75;9.50;6.00
75385;PMS5003;64239;55.012;73.474;2023-08-06T19:38:11;10.50;9.00;6.00
75385;PMS5003;64239;55.012;73.474;2023-08-06T19:40:37;12.00;10.00;7.00
75385;PMS5003;64239;55.012;73.474;2023-08-06T19:43:03;11.75;9.75;6.75
75385;PMS5003;64239;55.012;73.474;2023-08-06T19:45:28;10.00;8.75;5.75
75385;PMS5003;64239;55.012;73.474;2023-08-06T19:47:54;11.00;9.50;7.00
75385;PMS5003;64239;55.012;73.474;2023-08-06T19:50:21;12.00;10.00;6.00
75385;PMS5003;64239;55.012;73.474;2023-08-06T19:52:46;9.25;8.75;6.00
75385;PMS5003;64239;55.012;73.474;2023-08-06T19:55:12;11.00;10.00;7.00
75385;PMS5003;64239;55.012;73.474;2023-08-06T19:57:40;11.00;9.75;6.00
75385;PMS5003;64239;55.012;73.474;2023-08-06T20:00:06;11.75;9.50;7.00
75385;PMS5003;64239;55.012;73.474;2023-08-06T20:02:32;9.75;9.00;6.25
75385;PMS5003;64239;55.012;73.474;2023-08-06T20:04:58;9.75;9.00;6.00
75385;PMS5003;64239;55.012;73.474;2023-08-06T20:07:24;12.00;11.00;7.00
75385;PMS5003;64239;55.012;73.474;2023-08-06T20:09:50;12.00;10.00;6.00
75385;PMS5003;64239;55.012;73.474;2023-08-06T20:12:16;12.00;10.00;6.50
75385;PMS5003;64239;55.012;73.474;2023-08-06T20:14:42;13.00;11.00;7.00
75385;PMS5003;64239;55.012;73.474;2023-08-06T20:17:08;10.50;9.00;6.00
75385;PMS5003;64239;55.012;73.474;2023-08-06T20:19:34;10.50;9.00;6.00
75385;PMS5003;64239;55.012;73.474;2023-08-06T20:22:00;9.00;8.00;6.00
75385;PMS5003;64239;55.012;73.474;2023-08-06T20:24:26;11.00;9.25;6.00
75385;PMS5003;64239;55.012;73.474;2023-08-06T20:26:52;9.00;8.00;5.00
75385;PMS5003;64239;55.012;73.474;2023-08-06T20:29:18;11.00;10.00;7.00
75385;PMS5003;64239;55.012;73.474;2023-08-06T20:31:44;9.00;8.00;5.00
75385;PMS5003;64239;55.012;73.474;2023-08-06T20:34:10;11.00;10.00;6.75
75385;PMS5003;64239;55.012;73.474;2023-08-06T20:36:36;12.50;10.25;6.75
75385;PMS5003;64239;55.012;73.474;2023-08-06T20:39:02;10.50;9.00;6.00
75385;PMS5003;64239;55.012;73.474;2023-08-06T20:41:28;11.75;10.00;7.00
75385;PMS5003;64239;55.012;73.474;2023-08-06T20:43:54;10.00;8.00;5.75
75385;PMS5003;64239;55.012;73.474;2023-08-06T20:46:19;9.00;7.25;5.00
75385;PMS5003;64239;55.012;73.474;2023-08-06T20:48:46;10.00;8.00;6.00
75385;PMS5003;64239;55.012;73.474;2023-08-06T20:51:12;10.75;8.50;7.00
75385;PMS5003;64239;55.012;73.474;2023-08-06T20:53:37;12.00;10.00;7.00
75385;PMS5003;64239;55.012;73.474;2023-08-06T20:56:04;9.50;8.75;5.50